This is the latest recevied weather packets stored in our database for station/object K8MUD. If no packets are shown the sender has not sent any weather packets the latest 10 day(s).
| Time | Temp. | Humidity | Pressure | Rain* | Wind** | Luminosity | Snow |
|---|---|---|---|---|---|---|---|
| 1777441224 | 11.67° C | 81% | 1012.2 hPa | 0 mm | - | - | - |
| 1777440924 | 11.67° C | 81% | 1012.3 hPa | 0 mm | - | - | - |
| 1777440608 | 11.67° C | 82% | 1012.4 hPa | 0 mm | - | - | - |
| 1777440308 | 11.67° C | 82% | 1012.4 hPa | 0 mm | - | - | - |
| 1777440008 | 11.67° C | 82% | 1012.4 hPa | 0 mm | - | - | - |
| 1777439708 | 11.67° C | 81% | 1012.3 hPa | 0 mm | - | - | - |
| 1777439408 | 11.67° C | 81% | 1012.3 hPa | 0 mm | - | - | - |
| 1777439108 | 11.67° C | 81% | 1012.2 hPa | 0 mm | - | - | - |
| 1777438808 | 11.67° C | 81% | 1012.1 hPa | 0 mm | - | - | - |
| 1777438508 | 11.67° C | 81% | 1012 hPa | 0 mm | - | - | - |
| 1777438208 | 11.67° C | 81% | 1012.2 hPa | 0 mm | - | - | - |
| 1777437908 | 12.22° C | 81% | 1012.1 hPa | 0 mm | - | - | - |
| 1777437608 | 12.22° C | 80% | 1012 hPa | 0 mm | - | - | - |
| 1777437307 | 12.22° C | 80% | 1012 hPa | 0 mm | - | - | - |
| 1777437007 | 12.22° C | 80% | 1012.1 hPa | 0 mm | - | - | - |
| 1777434307 | 12.78° C | 77% | 1013 hPa | 0 mm | - | - | - |
| 1777433707 | 13.33° C | 77% | 1013.1 hPa | 0 mm | - | - | - |
| 1777430106 | 13.89° C | 73% | 1013 hPa | 0 mm | - | - | - |
| 1777429806 | 14.44° C | 73% | 1013 hPa | 0 mm | - | - | - |
| 1777429506 | 14.44° C | 73% | 1012.7 hPa | 0 mm | - | - | - |
| 1777425605 | 16.11° C | 69% | 1012 hPa | 0 mm | - | - | - |
| 1777422874 | 17.78° C | 65% | 1012 hPa | 0 mm | - | - | - |
| 1777422274 | 17.78° C | 64% | 1011.9 hPa | 0 mm | - | - | - |
| 1777421374 | 18.33° C | 63% | 1011.6 hPa | 0 mm | - | - | - |
| 1777414472 | 19.44° C | 61% | 1011 hPa | 0 mm | - | - | - |
* Rain latest hour (hover to see other rain measurements)
** Current wind speed in m/s (hover to see current wind gust speed)